createdAt,value
2023-01-13T00:01:08.566Z,10.08
2023-01-13T00:03:35.894Z,10.09
2023-01-13T00:06:03.228Z,10.02
2023-01-13T00:08:30.293Z,10.06
2023-01-13T00:10:56.939Z,9.98
2023-01-13T00:13:26.755Z,10.11
2023-01-13T00:15:58.206Z,10.09
2023-01-13T00:18:25.692Z,10.09
2023-01-13T00:21:02.869Z,10.04
2023-01-13T00:23:30.860Z,10.12
2023-01-13T00:25:59.050Z,10.14
2023-01-13T00:28:26.033Z,10.11
2023-01-13T00:30:53.105Z,10.13
2023-01-13T00:33:20.023Z,10.25
2023-01-13T00:36:01.751Z,10.28
2023-01-13T00:38:30.199Z,10.31
2023-01-13T00:41:07.926Z,10.33
2023-01-13T00:43:36.373Z,10.18
2023-01-13T00:46:04.744Z,10.32
2023-01-13T00:48:31.857Z,10.23
2023-01-13T00:51:03.885Z,10.27
2023-01-13T00:53:35.118Z,10.27
2023-01-13T00:56:08.112Z,10.20
2023-01-13T00:58:35.555Z,10.24
2023-01-13T01:01:05.107Z,10.15
2023-01-13T01:03:32.501Z,10.16
2023-01-13T01:06:06.643Z,10.19
2023-01-13T01:08:34.477Z,10.22
2023-01-13T01:11:07.662Z,10.26
2023-01-13T01:13:34.498Z,10.22
2023-01-13T01:16:04.568Z,10.13
2023-01-13T01:18:31.272Z,10.11
2023-01-13T01:21:00.342Z,10.21
2023-01-13T01:23:31.219Z,10.19
2023-01-13T01:26:02.509Z,10.29
2023-01-13T01:28:29.486Z,10.18
2023-01-13T01:30:58.445Z,10.09
2023-01-13T01:33:26.037Z,10.16
2023-01-13T01:35:54.235Z,10.20
2023-01-13T01:38:23.370Z,10.14
2023-01-13T01:40:49.998Z,10.13
2023-01-13T01:43:38.336Z,10.12
2023-01-13T01:46:05.055Z,10.13
2023-01-13T01:48:38.235Z,10.16
2023-01-13T01:51:07.810Z,10.15
2023-01-13T01:53:34.620Z,10.16
2023-01-13T01:56:02.176Z,10.18
2023-01-13T01:58:39.637Z,10.14
2023-01-13T02:01:06.364Z,10.11
2023-01-13T02:03:37.431Z,10.13
2023-01-13T02:06:04.223Z,10.06
2023-01-13T02:08:31.218Z,10.04
2023-01-13T02:10:57.789Z,9.96
2023-01-13T02:13:24.551Z,10.04
2023-01-13T02:16:03.664Z,10.02
2023-01-13T02:18:33.219Z,10.05
2023-01-13T02:21:27.911Z,10.04
2023-01-13T02:24:51.341Z,10.07
2023-01-13T02:27:27.326Z,10.15
2023-01-13T02:30:25.443Z,10.24
2023-01-13T02:33:13.815Z,10.12
2023-01-13T02:35:46.409Z,10.21
2023-01-13T02:38:15.551Z,10.15
2023-01-13T02:40:50.122Z,10.27
2023-01-13T02:43:58.396Z,10.28
2023-01-13T02:46:31.878Z,10.27
2023-01-13T02:49:04.446Z,10.23
2023-01-13T02:51:32.874Z,10.28
2023-01-13T02:54:08.865Z,10.28
2023-01-13T02:56:41.126Z,10.24
2023-01-13T02:59:09.588Z,10.25
2023-01-13T03:01:36.970Z,10.21
2023-01-13T03:04:50.752Z,10.23
2023-01-13T03:07:46.056Z,10.27
2023-01-13T03:10:25.090Z,10.23
2023-01-13T03:12:57.629Z,10.26
2023-01-13T03:16:09.608Z,10.25
2023-01-13T03:19:01.105Z,10.22
2023-01-13T03:21:39.846Z,10.24
2023-01-13T03:24:17.417Z,10.18
2023-01-13T03:27:17.277Z,9.98
2023-01-13T03:29:54.083Z,10.05
2023-01-13T03:32:28.826Z,9.92
2023-01-13T03:35:00.782Z,9.82
2023-01-13T03:37:33.510Z,9.51
2023-01-13T03:40:04.193Z,9.38
2023-01-13T03:42:34.568Z,9.52
2023-01-13T03:45:14.435Z,9.37
2023-01-13T03:47:56.290Z,9.22
2023-01-13T03:50:28.330Z,9.20
2023-01-13T03:53:15.837Z,9.13
2023-01-13T03:55:47.696Z,9.01
2023-01-13T03:58:25.263Z,8.93
2023-01-13T04:01:10.709Z,8.93
2023-01-13T04:04:33.226Z,8.86
2023-01-13T04:07:27.284Z,8.94
2023-01-13T04:10:00.255Z,8.99
2023-01-13T04:13:01.655Z,8.99
2023-01-13T04:15:34.965Z,8.92
2023-01-13T04:18:03.473Z,8.89
2023-01-13T04:20:30.130Z,8.81
2023-01-13T04:22:56.894Z,8.74
2023-01-13T04:25:23.557Z,8.68
2023-01-13T04:27:50.216Z,8.66
2023-01-13T04:30:17.284Z,8.42
2023-01-13T04:32:43.846Z,8.34
2023-01-13T04:35:10.761Z,8.27
2023-01-13T04:37:37.471Z,8.18
2023-01-13T04:40:04.753Z,8.11
2023-01-13T04:42:31.575Z,8.03
2023-01-13T04:44:58.311Z,7.97
2023-01-13T04:47:24.971Z,7.98
2023-01-13T04:49:51.605Z,7.94
2023-01-13T04:52:18.291Z,7.98
2023-01-13T04:54:44.969Z,7.96
2023-01-13T04:57:11.742Z,7.88
2023-01-13T04:59:38.310Z,7.94
2023-01-13T05:02:05.152Z,7.96
2023-01-13T05:04:31.863Z,7.98
2023-01-13T05:06:58.891Z,7.89
2023-01-13T05:09:25.565Z,7.84
2023-01-13T05:12:11.018Z,7.55
2023-01-13T05:14:56.318Z,7.82
2023-01-13T05:17:25.209Z,7.77
2023-01-13T05:19:51.953Z,7.74
2023-01-13T05:22:37.056Z,7.77
2023-01-13T05:25:22.373Z,7.72
2023-01-13T05:27:50.325Z,7.63
2023-01-13T05:30:17.726Z,7.68
2023-01-13T05:32:44.462Z,7.63
2023-01-13T05:35:11.457Z,7.63
2023-01-13T05:37:38.284Z,7.61
2023-01-13T05:40:24.121Z,7.54
2023-01-13T05:43:24.650Z,7.54
2023-01-13T05:45:56.052Z,7.48
2023-01-13T05:48:25.311Z,7.43
2023-01-13T05:50:52.634Z,7.44
2023-01-13T05:53:20.263Z,7.48
2023-01-13T05:55:46.934Z,7.42
2023-01-13T05:58:15.227Z,7.33
2023-01-13T06:00:42.417Z,7.34
2023-01-13T06:03:10.104Z,7.33
2023-01-13T06:05:37.448Z,7.39
2023-01-13T06:08:06.348Z,7.39
2023-01-13T06:10:33.828Z,7.28
2023-01-13T06:13:00.723Z,7.28
2023-01-13T06:15:27.648Z,7.34
2023-01-13T06:17:54.516Z,7.31
2023-01-13T06:20:21.377Z,7.20
2023-01-13T06:22:50.806Z,7.33
2023-01-13T06:25:24.597Z,7.27
2023-01-13T06:27:51.521Z,7.20
2023-01-13T06:30:18.241Z,7.32
2023-01-13T06:32:53.351Z,7.27
2023-01-13T06:35:25.460Z,7.18
2023-01-13T06:37:54.355Z,7.16
2023-01-13T06:40:21.492Z,7.19
2023-01-13T06:43:07.316Z,7.11
2023-01-13T06:45:35.106Z,7.21
2023-01-13T06:48:01.940Z,7.12
2023-01-13T06:50:28.986Z,7.23
2023-01-13T06:52:55.697Z,7.21
2023-01-13T06:55:22.493Z,7.11
2023-01-13T06:57:54.348Z,7.02
2023-01-13T07:00:22.313Z,7.06
2023-01-13T07:02:49.542Z,6.93
2023-01-13T07:05:17.306Z,7.12
2023-01-13T07:07:44.066Z,7.16
2023-01-13T07:10:14.395Z,7.23
2023-01-13T07:13:00.155Z,7.28
2023-01-13T07:15:27.178Z,7.42
2023-01-13T07:17:54.015Z,7.31
2023-01-13T07:20:20.663Z,7.29
2023-01-13T07:22:53.985Z,7.23
2023-01-13T07:25:21.188Z,7.39
2023-01-13T07:27:47.886Z,7.40
2023-01-13T07:30:14.677Z,7.37
2023-01-13T07:32:41.380Z,7.36
2023-01-13T07:35:08.295Z,7.43
2023-01-13T07:37:37.644Z,7.42
2023-01-13T07:40:05.004Z,7.48
2023-01-13T07:42:50.263Z,7.43
2023-01-13T07:45:17.091Z,7.46
2023-01-13T07:47:43.839Z,7.53
2023-01-13T07:50:11.157Z,7.51
2023-01-13T07:52:38.030Z,7.58
2023-01-13T07:55:04.982Z,7.52
2023-01-13T07:57:31.641Z,7.47
2023-01-13T07:59:58.353Z,7.49
2023-01-13T08:02:25.216Z,7.39
2023-01-13T08:04:52.157Z,7.51
2023-01-13T08:07:19.084Z,7.46
2023-01-13T08:09:45.721Z,7.43
2023-01-13T08:12:31.082Z,7.37
2023-01-13T08:14:57.812Z,7.50
2023-01-13T08:17:24.561Z,7.57
2023-01-13T08:19:51.247Z,7.49
2023-01-13T08:22:17.964Z,7.65
2023-01-13T08:24:44.738Z,7.57
2023-01-13T08:27:11.335Z,7.55
2023-01-13T08:29:38.109Z,7.81
2023-01-13T08:32:05.007Z,7.91
2023-01-13T08:34:31.693Z,8.06
2023-01-13T08:36:58.353Z,8.06
2023-01-13T08:39:25.675Z,8.15
2023-01-13T08:41:55.224Z,8.22
2023-01-13T08:44:26.760Z,8.32
2023-01-13T08:46:54.056Z,8.18
2023-01-13T08:49:20.832Z,8.09
2023-01-13T08:51:47.921Z,7.97
2023-01-13T08:54:15.051Z,7.98
2023-01-13T08:56:42.934Z,8.14
2023-01-13T08:59:12.558Z,8.30
2023-01-13T09:01:39.739Z,8.42
2023-01-13T09:04:12.256Z,8.10
2023-01-13T09:06:38.935Z,8.31
2023-01-13T09:09:05.690Z,8.07
2023-01-13T09:11:54.404Z,7.94
2023-01-13T09:14:24.349Z,8.03
2023-01-13T09:16:51.441Z,7.92
2023-01-13T09:19:18.284Z,7.90
2023-01-13T09:21:44.890Z,7.99
2023-01-13T09:24:11.666Z,7.99
2023-01-13T09:26:38.485Z,7.98
2023-01-13T09:29:05.641Z,7.92
2023-01-13T09:31:34.652Z,7.92
2023-01-13T09:34:21.473Z,7.96
2023-01-13T09:36:48.640Z,8.04
2023-01-13T09:39:15.770Z,8.08
2023-01-13T09:42:09.285Z,8.18
2023-01-13T09:45:05.041Z,8.26
2023-01-13T09:47:56.769Z,8.36
2023-01-13T09:50:56.533Z,8.50
2023-01-13T09:53:30.072Z,8.64
2023-01-13T09:55:56.835Z,8.67
2023-01-13T09:58:25.012Z,8.50
2023-01-13T10:01:23.802Z,8.53
2023-01-13T10:03:50.911Z,8.62
2023-01-13T10:06:35.749Z,8.66
2023-01-13T10:09:02.972Z,8.63
2023-01-13T10:11:55.589Z,8.74
2023-01-13T10:14:28.298Z,9.18
2023-01-13T10:17:00.987Z,9.03
2023-01-13T10:19:50.597Z,8.86
2023-01-13T10:22:37.320Z,9.01
2023-01-13T10:25:18.200Z,8.92
2023-01-13T10:27:49.464Z,9.11
2023-01-13T10:30:22.702Z,9.11
2023-01-13T10:32:56.246Z,9.19
2023-01-13T10:35:50.003Z,9.06
2023-01-13T10:38:26.353Z,9.06
2023-01-13T10:40:57.358Z,9.00
2023-01-13T10:43:25.119Z,9.08
2023-01-13T10:45:55.519Z,9.10
2023-01-13T10:48:22.145Z,9.07
2023-01-13T10:50:49.481Z,9.06
2023-01-13T10:53:19.421Z,9.34
2023-01-13T10:55:59.981Z,9.61
2023-01-13T10:58:27.966Z,9.30
2023-01-13T11:01:03.683Z,9.39
2023-01-13T11:03:43.196Z,9.42
2023-01-13T11:06:19.120Z,9.39
2023-01-13T11:08:49.347Z,9.61
2023-01-13T11:11:37.251Z,9.53
2023-01-13T11:14:31.281Z,9.74
2023-01-13T11:17:01.627Z,9.45
2023-01-13T11:19:32.220Z,9.38
2023-01-13T11:22:14.166Z,9.45
2023-01-13T11:25:01.882Z,9.44
2023-01-13T11:27:48.317Z,9.36
2023-01-13T11:30:33.706Z,9.30
2023-01-13T11:33:40.236Z,9.19
2023-01-13T11:36:15.979Z,9.26
2023-01-13T11:38:46.207Z,9.28
2023-01-13T11:41:32.821Z,9.30
2023-01-13T11:44:14.847Z,9.14
2023-01-13T11:46:41.988Z,9.10
2023-01-13T11:49:22.282Z,9.21
2023-01-13T11:51:58.802Z,9.18
2023-01-13T11:54:53.786Z,9.16
2023-01-13T11:57:39.167Z,9.21
2023-01-13T12:00:47.859Z,9.34
2023-01-13T12:03:45.597Z,9.33
2023-01-13T12:06:38.679Z,9.46
2023-01-13T12:09:30.151Z,9.49
2023-01-13T12:12:20.201Z,9.52
2023-01-13T12:15:17.529Z,9.33
2023-01-13T12:17:59.632Z,9.28
2023-01-13T12:20:32.814Z,9.16
2023-01-13T12:23:04.162Z,9.13
2023-01-13T12:25:37.181Z,9.02
2023-01-13T12:28:10.087Z,9.02
2023-01-13T12:30:44.638Z,9.05
2023-01-13T12:33:30.168Z,9.17
2023-01-13T12:36:27.584Z,9.12
2023-01-13T12:39:03.103Z,9.07
2023-01-13T12:41:31.279Z,9.07
2023-01-13T12:44:24.739Z,9.08
2023-01-13T12:46:56.023Z,9.06
2023-01-13T12:49:27.369Z,8.91
2023-01-13T12:51:56.773Z,8.86
2023-01-13T12:54:42.518Z,9.05
2023-01-13T12:57:26.524Z,8.89
2023-01-13T12:59:59.168Z,8.93
2023-01-13T13:02:28.921Z,9.01
2023-01-13T13:05:20.793Z,8.98
2023-01-13T13:08:06.753Z,8.89
2023-01-13T13:10:46.646Z,8.90
2023-01-13T13:13:42.061Z,8.68
2023-01-13T13:16:26.891Z,8.80
2023-01-13T13:19:23.404Z,8.79
2023-01-13T13:22:11.933Z,8.81
2023-01-13T13:24:43.923Z,8.83
2023-01-13T13:27:17.792Z,8.61
2023-01-13T13:29:47.240Z,8.44
2023-01-13T13:32:51.315Z,8.31
2023-01-13T13:35:36.410Z,8.44
2023-01-13T13:38:36.975Z,8.34
2023-01-13T13:41:44.769Z,8.46
2023-01-13T13:44:38.821Z,8.39
2023-01-13T13:47:07.320Z,8.18
2023-01-13T13:49:46.856Z,8.24
2023-01-13T13:52:32.237Z,8.24
2023-01-13T13:55:09.936Z,8.39
2023-01-13T13:57:40.094Z,8.28
2023-01-13T14:00:23.721Z,8.29
2023-01-13T14:03:05.845Z,8.23
2023-01-13T14:05:36.760Z,8.28
2023-01-13T14:08:24.044Z,8.35
2023-01-13T14:10:51.022Z,8.19
2023-01-13T14:13:29.370Z,8.27
2023-01-13T14:15:58.546Z,8.19
2023-01-13T14:18:26.400Z,8.17
2023-01-13T14:21:04.753Z,8.12
2023-01-13T14:23:33.411Z,8.14
2023-01-13T14:26:08.758Z,8.18
2023-01-13T14:28:40.402Z,8.20
2023-01-13T14:31:09.107Z,8.24
2023-01-13T14:33:46.117Z,8.22
2023-01-13T14:36:35.756Z,8.16
2023-01-13T14:39:05.764Z,8.23
2023-01-13T14:41:48.122Z,8.22
2023-01-13T14:44:33.496Z,8.26
2023-01-13T14:47:17.049Z,8.26
2023-01-13T14:50:00.531Z,8.29
2023-01-13T14:52:30.451Z,8.19
2023-01-13T14:55:06.856Z,8.18
2023-01-13T14:57:35.857Z,8.11
2023-01-13T15:00:24.386Z,8.10
2023-01-13T15:02:53.833Z,8.07
2023-01-13T15:05:20.516Z,8.04
2023-01-13T15:08:09.899Z,8.05
2023-01-13T15:10:49.261Z,8.06
2023-01-13T15:13:36.611Z,8.00
2023-01-13T15:16:14.216Z,8.01
2023-01-13T15:18:41.360Z,7.99
2023-01-13T15:21:10.191Z,7.92
2023-01-13T15:23:37.611Z,7.96
2023-01-13T15:26:04.527Z,7.91
2023-01-13T15:28:32.265Z,7.90
2023-01-13T15:31:03.920Z,7.84
2023-01-13T15:33:30.724Z,7.83
2023-01-13T15:35:57.513Z,7.81
2023-01-13T15:38:24.732Z,7.77
2023-01-13T15:40:52.426Z,7.76
2023-01-13T15:43:43.156Z,7.75
2023-01-13T15:46:32.105Z,7.69
2023-01-13T15:49:02.032Z,7.73
2023-01-13T15:51:28.725Z,7.65
2023-01-13T15:53:55.440Z,7.63
2023-01-13T15:56:25.604Z,7.67
2023-01-13T15:58:52.699Z,7.68
2023-01-13T16:01:19.764Z,7.69
2023-01-13T16:03:46.654Z,7.65
2023-01-13T16:06:19.816Z,7.61
2023-01-13T16:08:46.769Z,7.58
2023-01-13T16:11:14.158Z,7.51
2023-01-13T16:13:40.852Z,7.53
2023-01-13T16:16:21.477Z,7.51
2023-01-13T16:18:49.014Z,7.50
2023-01-13T16:21:16.106Z,7.47
2023-01-13T16:23:42.849Z,7.52
2023-01-13T16:26:24.782Z,7.51
2023-01-13T16:28:53.582Z,7.56
2023-01-13T16:31:29.257Z,7.53
2023-01-13T16:33:56.409Z,7.61
2023-01-13T16:36:23.958Z,7.50
2023-01-13T16:38:52.593Z,7.43
2023-01-13T16:41:20.866Z,7.39
2023-01-13T16:43:48.596Z,7.61
2023-01-13T16:46:23.874Z,7.56
2023-01-13T16:48:52.941Z,7.62
2023-01-13T16:51:20.554Z,7.61
2023-01-13T16:53:47.347Z,7.74
2023-01-13T16:56:25.369Z,7.51
2023-01-13T16:58:54.818Z,7.49
2023-01-13T17:01:30.136Z,7.76
2023-01-13T17:03:57.728Z,7.56
2023-01-13T17:06:35.661Z,7.57
2023-01-13T17:09:08.278Z,7.55
2023-01-13T17:11:34.935Z,7.53
2023-01-13T17:14:11.124Z,7.53
2023-01-13T17:16:45.870Z,7.48
2023-01-13T17:19:13.130Z,7.45
2023-01-13T17:21:39.859Z,7.48
2023-01-13T17:24:08.053Z,7.53
2023-01-13T17:26:37.418Z,7.49
2023-01-13T17:29:06.479Z,7.44
2023-01-13T17:31:35.283Z,7.61
2023-01-13T17:34:03.076Z,7.58
2023-01-13T17:36:30.036Z,7.45
2023-01-13T17:38:57.031Z,7.37
2023-01-13T17:41:25.528Z,7.38
2023-01-13T17:43:53.185Z,7.40
2023-01-13T17:46:22.538Z,7.39
2023-01-13T17:48:51.296Z,7.38
2023-01-13T17:51:19.288Z,7.38
2023-01-13T17:53:46.335Z,7.33
2023-01-13T17:56:14.850Z,7.36
2023-01-13T17:58:41.925Z,7.35
2023-01-13T18:01:19.974Z,7.40
2023-01-13T18:03:47.418Z,7.43
2023-01-13T18:06:23.927Z,7.43
2023-01-13T18:08:50.884Z,7.44
2023-01-13T18:11:20.163Z,7.48
2023-01-13T18:13:52.131Z,7.54
2023-01-13T18:16:19.919Z,7.53
2023-01-13T18:18:49.281Z,7.49
2023-01-13T18:21:44.204Z,7.47
2023-01-13T18:24:31.557Z,7.47
2023-01-13T18:27:16.807Z,7.42
2023-01-13T18:29:43.687Z,7.35
2023-01-13T18:32:10.508Z,7.13
2023-01-13T18:34:37.782Z,7.18
2023-01-13T18:37:06.889Z,7.12
2023-01-13T18:39:33.542Z,7.27
2023-01-13T18:42:18.717Z,7.21
2023-01-13T18:44:45.348Z,7.18
2023-01-13T18:47:11.964Z,7.18
2023-01-13T18:49:38.757Z,7.19
2023-01-13T18:52:06.355Z,7.22
2023-01-13T18:54:35.388Z,7.21
2023-01-13T18:57:05.476Z,7.18
2023-01-13T18:59:34.507Z,7.18
2023-01-13T19:02:02.495Z,7.25
2023-01-13T19:04:29.528Z,7.15
2023-01-13T19:07:00.832Z,7.09
2023-01-13T19:09:29.687Z,7.11
2023-01-13T19:11:57.484Z,7.19
2023-01-13T19:14:34.646Z,7.18
2023-01-13T19:17:06.793Z,7.22
2023-01-13T19:19:33.821Z,7.18
2023-01-13T19:22:00.417Z,7.18
2023-01-13T19:24:27.140Z,7.14
2023-01-13T19:26:54.833Z,7.10
2023-01-13T19:29:21.849Z,7.00
2023-01-13T19:31:48.713Z,7.05
2023-01-13T19:34:16.166Z,6.98
2023-01-13T19:36:42.834Z,6.91
2023-01-13T19:39:10.354Z,6.94
2023-01-13T19:41:55.959Z,6.97
2023-01-13T19:44:41.131Z,6.95
2023-01-13T19:47:08.003Z,6.95
2023-01-13T19:49:34.672Z,6.88
2023-01-13T19:52:01.352Z,6.80
2023-01-13T19:54:28.028Z,6.92
2023-01-13T19:56:54.666Z,7.00
2023-01-13T19:59:22.397Z,7.04
2023-01-13T20:01:49.186Z,7.01
2023-01-13T20:04:19.306Z,7.02
2023-01-13T20:06:46.642Z,7.01
2023-01-13T20:09:13.261Z,6.95
2023-01-13T20:11:39.951Z,6.91
2023-01-13T20:14:06.689Z,6.83
2023-01-13T20:16:33.826Z,6.74
2023-01-13T20:19:00.522Z,6.62
2023-01-13T20:21:27.155Z,6.62
2023-01-13T20:23:53.868Z,6.59
2023-01-13T20:26:21.476Z,6.53
2023-01-13T20:28:48.350Z,6.53
2023-01-13T20:31:15.731Z,6.52
2023-01-13T20:33:42.843Z,6.47
2023-01-13T20:36:24.486Z,6.39
2023-01-13T20:38:51.282Z,6.33
2023-01-13T20:41:36.405Z,6.26
2023-01-13T20:44:03.042Z,6.20
2023-01-13T20:46:29.728Z,6.13
2023-01-13T20:48:56.950Z,6.05
2023-01-13T20:51:23.573Z,5.96
2023-01-13T20:53:50.423Z,5.95
2023-01-13T20:56:17.107Z,6.07
2023-01-13T20:58:44.179Z,6.03
2023-01-13T21:01:11.030Z,5.92
2023-01-13T21:03:37.744Z,6.03
2023-01-13T21:06:04.617Z,6.10
2023-01-13T21:08:31.573Z,6.16
2023-01-13T21:11:04.581Z,6.16
2023-01-13T21:13:50.793Z,6.22
2023-01-13T21:16:17.496Z,6.28
2023-01-13T21:19:02.654Z,6.28
2023-01-13T21:21:29.780Z,6.31
2023-01-13T21:23:56.423Z,6.31
2023-01-13T21:26:23.114Z,6.33
2023-01-13T21:28:50.607Z,6.27
2023-01-13T21:31:18.644Z,6.26
2023-01-13T21:33:47.664Z,6.24
2023-01-13T21:36:15.230Z,6.26
2023-01-13T21:38:42.321Z,6.17
2023-01-13T21:41:09.235Z,6.17
2023-01-13T21:43:56.170Z,6.15
2023-01-13T21:46:42.578Z,6.16
2023-01-13T21:49:09.717Z,6.17
2023-01-13T21:51:36.681Z,6.20
2023-01-13T21:54:03.417Z,6.25
2023-01-13T21:56:30.129Z,6.26
2023-01-13T21:58:56.739Z,6.34
2023-01-13T22:01:23.449Z,6.41
2023-01-13T22:04:08.894Z,6.43
2023-01-13T22:06:35.679Z,6.35
2023-01-13T22:09:02.380Z,6.32
2023-01-13T22:11:29.307Z,6.35
2023-01-13T22:14:11.259Z,6.25
2023-01-13T22:16:42.228Z,6.28
2023-01-13T22:19:10.382Z,6.27
2023-01-13T22:21:37.720Z,6.21
2023-01-13T22:24:04.624Z,6.26
2023-01-13T22:26:31.336Z,6.26
2023-01-13T22:28:58.603Z,6.20
2023-01-13T22:31:25.430Z,6.30
2023-01-13T22:33:55.556Z,6.27
2023-01-13T22:36:24.193Z,6.33
2023-01-13T22:38:56.109Z,6.37
2023-01-13T22:41:23.387Z,6.37
2023-01-13T22:43:50.499Z,6.45
2023-01-13T22:46:17.689Z,6.48
2023-01-13T22:48:46.069Z,6.46
2023-01-13T22:51:15.652Z,6.58
2023-01-13T22:53:42.897Z,6.51
2023-01-13T22:56:16.800Z,6.55
2023-01-13T22:58:44.416Z,6.55
2023-01-13T23:01:16.338Z,6.56
2023-01-13T23:03:47.819Z,6.60
2023-01-13T23:06:15.507Z,6.59
2023-01-13T23:08:42.142Z,6.61
2023-01-13T23:11:11.434Z,6.60
2023-01-13T23:13:39.406Z,6.61
2023-01-13T23:16:08.779Z,6.59
2023-01-13T23:18:35.401Z,6.59
2023-01-13T23:21:13.519Z,6.64
2023-01-13T23:23:40.565Z,6.63
2023-01-13T23:26:07.802Z,6.68
2023-01-13T23:28:35.947Z,6.69
2023-01-13T23:31:10.723Z,6.63
2023-01-13T23:33:37.962Z,6.67
2023-01-13T23:36:07.301Z,6.62
2023-01-13T23:38:34.379Z,6.64
2023-01-13T23:41:01.099Z,6.61
2023-01-13T23:43:27.830Z,6.57
2023-01-13T23:46:06.794Z,6.53
2023-01-13T23:48:34.066Z,6.43
2023-01-13T23:51:03.395Z,6.40
2023-01-13T23:53:39.980Z,6.41
2023-01-13T23:56:10.399Z,6.30
2023-01-13T23:58:37.079Z,6.21
